sensor_id;sensor_type;location;lat;lon;timestamp;P1;durP1;ratioP1;P2;durP2;ratioP2
52948;SDS011;38812;50.942;3.644;2023-03-13T00:01:54;21.30;;;5.18;;
52948;SDS011;38812;50.942;3.644;2023-03-13T00:04:20;24.50;;;5.70;;
52948;SDS011;38812;50.942;3.644;2023-03-13T00:06:45;20.92;;;5.60;;
52948;SDS011;38812;50.942;3.644;2023-03-13T00:09:11;21.77;;;4.72;;
52948;SDS011;38812;50.942;3.644;2023-03-13T00:11:39;18.63;;;4.57;;
52948;SDS011;38812;50.942;3.644;2023-03-13T00:14:05;20.58;;;4.50;;
52948;SDS011;38812;50.942;3.644;2023-03-13T00:16:31;23.38;;;5.45;;
52948;SDS011;38812;50.942;3.644;2023-03-13T00:18:58;20.58;;;5.13;;
52948;SDS011;38812;50.942;3.644;2023-03-13T00:21:24;22.95;;;4.32;;
52948;SDS011;38812;50.942;3.644;2023-03-13T00:23:51;26.33;;;5.43;;
52948;SDS011;38812;50.942;3.644;2023-03-13T00:26:18;22.23;;;5.53;;
52948;SDS011;38812;50.942;3.644;2023-03-13T00:28:46;25.67;;;5.75;;
52948;SDS011;38812;50.942;3.644;2023-03-13T00:31:22;16.60;;;5.05;;
52948;SDS011;38812;50.942;3.644;2023-03-13T00:33:50;24.77;;;5.03;;
52948;SDS011;38812;50.942;3.644;2023-03-13T00:38:44;15.45;;;4.72;;
52948;SDS011;38812;50.942;3.644;2023-03-13T00:41:11;20.95;;;4.85;;
52948;SDS011;38812;50.942;3.644;2023-03-13T00:43:41;15.95;;;4.22;;
52948;SDS011;38812;50.942;3.644;2023-03-13T00:46:08;18.77;;;4.95;;
52948;SDS011;38812;50.942;3.644;2023-03-13T00:48:34;17.98;;;4.78;;
52948;SDS011;38812;50.942;3.644;2023-03-13T00:51:00;19.75;;;4.70;;
52948;SDS011;38812;50.942;3.644;2023-03-13T00:53:27;14.73;;;4.45;;
52948;SDS011;38812;50.942;3.644;2023-03-13T00:56:00;20.10;;;4.85;;
52948;SDS011;38812;50.942;3.644;2023-03-13T00:58:28;17.50;;;4.97;;
52948;SDS011;38812;50.942;3.644;2023-03-13T01:00:55;12.05;;;4.22;;
52948;SDS011;38812;50.942;3.644;2023-03-13T01:03:21;20.45;;;4.15;;
52948;SDS011;38812;50.942;3.644;2023-03-13T01:05:58;17.33;;;4.97;;
52948;SDS011;38812;50.942;3.644;2023-03-13T01:08:25;18.42;;;4.75;;
52948;SDS011;38812;50.942;3.644;2023-03-13T01:10:58;12.70;;;4.70;;
52948;SDS011;38812;50.942;3.644;2023-03-13T01:13:25;13.90;;;4.15;;
52948;SDS011;38812;50.942;3.644;2023-03-13T01:15:51;10.95;;;4.47;;
52948;SDS011;38812;50.942;3.644;2023-03-13T01:18:17;14.77;;;4.88;;
52948;SDS011;38812;50.942;3.644;2023-03-13T01:20:43;13.98;;;4.55;;
52948;SDS011;38812;50.942;3.644;2023-03-13T01:23:08;14.23;;;4.28;;
52948;SDS011;38812;50.942;3.644;2023-03-13T01:25:37;11.65;;;4.43;;
52948;SDS011;38812;50.942;3.644;2023-03-13T01:28:03;15.40;;;3.95;;
52948;SDS011;38812;50.942;3.644;2023-03-13T01:30:28;12.48;;;5.32;;
52948;SDS011;38812;50.942;3.644;2023-03-13T01:32:54;11.95;;;4.30;;
52948;SDS011;38812;50.942;3.644;2023-03-13T01:35:19;9.00;;;3.80;;
52948;SDS011;38812;50.942;3.644;2023-03-13T01:37:44;10.30;;;3.90;;
52948;SDS011;38812;50.942;3.644;2023-03-13T01:40:10;10.18;;;4.65;;
52948;SDS011;38812;50.942;3.644;2023-03-13T01:42:49;9.05;;;3.22;;
52948;SDS011;38812;50.942;3.644;2023-03-13T01:51:25;9.25;;;3.30;;
52948;SDS011;38812;50.942;3.644;2023-03-13T01:56:36;5.97;;;2.95;;
52948;SDS011;38812;50.942;3.644;2023-03-13T01:59:07;5.13;;;2.97;;
52948;SDS011;38812;50.942;3.644;2023-03-13T02:01:37;8.40;;;3.65;;
52948;SDS011;38812;50.942;3.644;2023-03-13T02:04:02;14.82;;;3.63;;
52948;SDS011;38812;50.942;3.644;2023-03-13T02:06:30;5.75;;;3.90;;
52948;SDS011;38812;50.942;3.644;2023-03-13T02:09:00;11.40;;;3.25;;
52948;SDS011;38812;50.942;3.644;2023-03-13T02:14:26;5.00;;;3.40;;
52948;SDS011;38812;50.942;3.644;2023-03-13T02:16:54;8.27;;;4.13;;
52948;SDS011;38812;50.942;3.644;2023-03-13T02:19:27;8.93;;;3.70;;
52948;SDS011;38812;50.942;3.644;2023-03-13T02:27:04;6.55;;;3.90;;
52948;SDS011;38812;50.942;3.644;2023-03-13T02:29:30;7.03;;;4.20;;
52948;SDS011;38812;50.942;3.644;2023-03-13T02:31:56;8.18;;;4.10;;
52948;SDS011;38812;50.942;3.644;2023-03-13T02:34:23;6.70;;;4.10;;
52948;SDS011;38812;50.942;3.644;2023-03-13T02:36:53;9.38;;;3.40;;
52948;SDS011;38812;50.942;3.644;2023-03-13T02:39:19;6.47;;;3.92;;
52948;SDS011;38812;50.942;3.644;2023-03-13T02:41:48;10.00;;;4.03;;
52948;SDS011;38812;50.942;3.644;2023-03-13T02:44:15;8.15;;;3.97;;
52948;SDS011;38812;50.942;3.644;2023-03-13T02:46:49;4.45;;;3.55;;
52948;SDS011;38812;50.942;3.644;2023-03-13T02:49:22;6.50;;;3.28;;
52948;SDS011;38812;50.942;3.644;2023-03-13T02:51:53;7.05;;;3.30;;
52948;SDS011;38812;50.942;3.644;2023-03-13T02:54:23;7.82;;;3.80;;
52948;SDS011;38812;50.942;3.644;2023-03-13T02:56:56;12.70;;;3.78;;
52948;SDS011;38812;50.942;3.644;2023-03-13T02:59:25;6.53;;;3.47;;
52948;SDS011;38812;50.942;3.644;2023-03-13T03:01:51;6.07;;;3.30;;
52948;SDS011;38812;50.942;3.644;2023-03-13T03:04:17;8.07;;;3.17;;
52948;SDS011;38812;50.942;3.644;2023-03-13T03:06:47;8.43;;;3.40;;
52948;SDS011;38812;50.942;3.644;2023-03-13T03:09:13;4.03;;;3.08;;
52948;SDS011;38812;50.942;3.644;2023-03-13T03:11:38;5.60;;;3.30;;
52948;SDS011;38812;50.942;3.644;2023-03-13T03:14:04;6.78;;;3.40;;
52948;SDS011;38812;50.942;3.644;2023-03-13T03:16:29;6.88;;;3.30;;
52948;SDS011;38812;50.942;3.644;2023-03-13T03:18:55;5.38;;;3.63;;
52948;SDS011;38812;50.942;3.644;2023-03-13T03:21:20;8.20;;;3.35;;
52948;SDS011;38812;50.942;3.644;2023-03-13T03:23:48;5.53;;;3.13;;
52948;SDS011;38812;50.942;3.644;2023-03-13T03:26:14;9.73;;;3.15;;
52948;SDS011;38812;50.942;3.644;2023-03-13T03:28:39;7.03;;;3.45;;
52948;SDS011;38812;50.942;3.644;2023-03-13T03:31:09;8.13;;;3.40;;
52948;SDS011;38812;50.942;3.644;2023-03-13T03:33:37;7.17;;;3.47;;
52948;SDS011;38812;50.942;3.644;2023-03-13T03:36:08;5.07;;;3.15;;
52948;SDS011;38812;50.942;3.644;2023-03-13T03:38:35;4.55;;;2.83;;
52948;SDS011;38812;50.942;3.644;2023-03-13T03:41:03;9.02;;;3.45;;
52948;SDS011;38812;50.942;3.644;2023-03-13T03:43:29;5.63;;;2.80;;
52948;SDS011;38812;50.942;3.644;2023-03-13T03:45:54;11.70;;;3.25;;
52948;SDS011;38812;50.942;3.644;2023-03-13T03:48:20;9.63;;;3.00;;
52948;SDS011;38812;50.942;3.644;2023-03-13T03:50:45;5.22;;;2.70;;
52948;SDS011;38812;50.942;3.644;2023-03-13T03:53:10;11.45;;;3.10;;
52948;SDS011;38812;50.942;3.644;2023-03-13T03:55:36;6.22;;;2.70;;
52948;SDS011;38812;50.942;3.644;2023-03-13T03:58:01;10.43;;;3.83;;
52948;SDS011;38812;50.942;3.644;2023-03-13T04:00:27;8.27;;;2.65;;
52948;SDS011;38812;50.942;3.644;2023-03-13T04:02:53;4.88;;;2.67;;
52948;SDS011;38812;50.942;3.644;2023-03-13T04:05:19;12.13;;;2.90;;
52948;SDS011;38812;50.942;3.644;2023-03-13T04:07:45;7.57;;;3.17;;
52948;SDS011;38812;50.942;3.644;2023-03-13T04:10:10;8.75;;;3.30;;
52948;SDS011;38812;50.942;3.644;2023-03-13T04:12:36;5.82;;;2.78;;
52948;SDS011;38812;50.942;3.644;2023-03-13T04:15:01;10.07;;;2.42;;
52948;SDS011;38812;50.942;3.644;2023-03-13T04:17:27;7.18;;;2.50;;
52948;SDS011;38812;50.942;3.644;2023-03-13T04:19:53;5.80;;;2.50;;
52948;SDS011;38812;50.942;3.644;2023-03-13T04:22:18;7.28;;;2.53;;
52948;SDS011;38812;50.942;3.644;2023-03-13T04:24:43;12.57;;;3.15;;
52948;SDS011;38812;50.942;3.644;2023-03-13T04:27:09;8.40;;;3.03;;
52948;SDS011;38812;50.942;3.644;2023-03-13T04:29:34;9.45;;;2.35;;
52948;SDS011;38812;50.942;3.644;2023-03-13T04:32:00;7.63;;;4.03;;
52948;SDS011;38812;50.942;3.644;2023-03-13T04:34:26;11.15;;;2.97;;
52948;SDS011;38812;50.942;3.644;2023-03-13T04:36:51;7.50;;;2.88;;
52948;SDS011;38812;50.942;3.644;2023-03-13T04:39:17;9.60;;;2.80;;
52948;SDS011;38812;50.942;3.644;2023-03-13T04:41:42;11.07;;;3.72;;
52948;SDS011;38812;50.942;3.644;2023-03-13T04:44:07;7.95;;;2.90;;
52948;SDS011;38812;50.942;3.644;2023-03-13T04:46:33;11.65;;;2.78;;
52948;SDS011;38812;50.942;3.644;2023-03-13T04:48:58;9.15;;;2.80;;
52948;SDS011;38812;50.942;3.644;2023-03-13T04:51:23;12.00;;;3.95;;
52948;SDS011;38812;50.942;3.644;2023-03-13T04:53:49;11.27;;;3.08;;
52948;SDS011;38812;50.942;3.644;2023-03-13T04:56:19;8.20;;;2.65;;
52948;SDS011;38812;50.942;3.644;2023-03-13T04:58:47;8.93;;;2.60;;
52948;SDS011;38812;50.942;3.644;2023-03-13T05:01:12;7.57;;;3.05;;
52948;SDS011;38812;50.942;3.644;2023-03-13T05:03:38;9.55;;;2.95;;
52948;SDS011;38812;50.942;3.644;2023-03-13T05:06:03;10.95;;;2.58;;
52948;SDS011;38812;50.942;3.644;2023-03-13T05:08:29;9.50;;;2.35;;
52948;SDS011;38812;50.942;3.644;2023-03-13T05:10:54;9.32;;;2.83;;
52948;SDS011;38812;50.942;3.644;2023-03-13T05:13:19;9.05;;;3.13;;
52948;SDS011;38812;50.942;3.644;2023-03-13T05:15:45;9.85;;;3.10;;
52948;SDS011;38812;50.942;3.644;2023-03-13T05:18:10;17.10;;;2.80;;
52948;SDS011;38812;50.942;3.644;2023-03-13T05:20:36;8.18;;;2.60;;
52948;SDS011;38812;50.942;3.644;2023-03-13T05:23:02;14.02;;;3.08;;
52948;SDS011;38812;50.942;3.644;2023-03-13T05:25:28;13.00;;;2.83;;
52948;SDS011;38812;50.942;3.644;2023-03-13T05:27:53;5.85;;;2.80;;
52948;SDS011;38812;50.942;3.644;2023-03-13T05:30:19;12.18;;;3.40;;
52948;SDS011;38812;50.942;3.644;2023-03-13T05:32:44;8.07;;;2.78;;
52948;SDS011;38812;50.942;3.644;2023-03-13T05:35:09;7.72;;;2.33;;
52948;SDS011;38812;50.942;3.644;2023-03-13T05:37:35;8.80;;;2.90;;
52948;SDS011;38812;50.942;3.644;2023-03-13T05:40:00;11.70;;;2.67;;
52948;SDS011;38812;50.942;3.644;2023-03-13T05:42:26;12.98;;;2.80;;
52948;SDS011;38812;50.942;3.644;2023-03-13T05:44:51;10.52;;;3.08;;
52948;SDS011;38812;50.942;3.644;2023-03-13T05:47:17;14.25;;;3.13;;
52948;SDS011;38812;50.942;3.644;2023-03-13T05:49:42;7.72;;;2.08;;
52948;SDS011;38812;50.942;3.644;2023-03-13T05:52:08;13.35;;;3.00;;
52948;SDS011;38812;50.942;3.644;2023-03-13T05:54:33;11.25;;;2.50;;
52948;SDS011;38812;50.942;3.644;2023-03-13T05:56:59;10.60;;;2.70;;
52948;SDS011;38812;50.942;3.644;2023-03-13T05:59:24;9.02;;;2.78;;
52948;SDS011;38812;50.942;3.644;2023-03-13T06:01:49;15.55;;;2.83;;
52948;SDS011;38812;50.942;3.644;2023-03-13T06:04:15;11.80;;;3.55;;
52948;SDS011;38812;50.942;3.644;2023-03-13T06:06:40;9.27;;;2.75;;
52948;SDS011;38812;50.942;3.644;2023-03-13T06:09:06;7.20;;;2.50;;
52948;SDS011;38812;50.942;3.644;2023-03-13T06:11:31;12.63;;;2.67;;
52948;SDS011;38812;50.942;3.644;2023-03-13T06:13:56;16.02;;;3.95;;
52948;SDS011;38812;50.942;3.644;2023-03-13T06:16:22;12.02;;;3.65;;
52948;SDS011;38812;50.942;3.644;2023-03-13T06:18:47;12.75;;;3.20;;
52948;SDS011;38812;50.942;3.644;2023-03-13T06:21:13;14.48;;;3.63;;
52948;SDS011;38812;50.942;3.644;2023-03-13T06:23:38;13.40;;;3.45;;
52948;SDS011;38812;50.942;3.644;2023-03-13T06:26:04;16.73;;;2.78;;
52948;SDS011;38812;50.942;3.644;2023-03-13T06:28:29;16.83;;;3.60;;
52948;SDS011;38812;50.942;3.644;2023-03-13T06:30:59;12.82;;;3.35;;
52948;SDS011;38812;50.942;3.644;2023-03-13T06:33:25;9.80;;;3.00;;
52948;SDS011;38812;50.942;3.644;2023-03-13T06:35:51;10.35;;;2.97;;
52948;SDS011;38812;50.942;3.644;2023-03-13T06:38:16;11.95;;;2.88;;
52948;SDS011;38812;50.942;3.644;2023-03-13T06:40:41;11.75;;;2.60;;
52948;SDS011;38812;50.942;3.644;2023-03-13T06:43:07;16.33;;;3.65;;
52948;SDS011;38812;50.942;3.644;2023-03-13T06:45:33;12.75;;;2.67;;
52948;SDS011;38812;50.942;3.644;2023-03-13T06:48:00;10.55;;;2.83;;
52948;SDS011;38812;50.942;3.644;2023-03-13T06:50:25;13.55;;;2.80;;
52948;SDS011;38812;50.942;3.644;2023-03-13T06:52:51;13.70;;;2.75;;
52948;SDS011;38812;50.942;3.644;2023-03-13T06:55:17;20.33;;;4.43;;
52948;SDS011;38812;50.942;3.644;2023-03-13T06:57:42;12.43;;;2.50;;
52948;SDS011;38812;50.942;3.644;2023-03-13T07:00:09;9.75;;;2.60;;
52948;SDS011;38812;50.942;3.644;2023-03-13T07:02:35;12.38;;;2.75;;
52948;SDS011;38812;50.942;3.644;2023-03-13T07:05:01;22.63;;;3.05;;
52948;SDS011;38812;50.942;3.644;2023-03-13T07:07:29;18.65;;;3.15;;
52948;SDS011;38812;50.942;3.644;2023-03-13T07:09:57;11.43;;;2.97;;
52948;SDS011;38812;50.942;3.644;2023-03-13T07:12:22;12.25;;;3.28;;
52948;SDS011;38812;50.942;3.644;2023-03-13T07:14:48;6.55;;;3.08;;
52948;SDS011;38812;50.942;3.644;2023-03-13T07:17:13;10.98;;;2.63;;
52948;SDS011;38812;50.942;3.644;2023-03-13T07:19:39;8.05;;;2.70;;
52948;SDS011;38812;50.942;3.644;2023-03-13T07:22:04;12.82;;;3.45;;
52948;SDS011;38812;50.942;3.644;2023-03-13T07:24:29;10.85;;;3.00;;
52948;SDS011;38812;50.942;3.644;2023-03-13T07:26:55;13.77;;;3.88;;
52948;SDS011;38812;50.942;3.644;2023-03-13T07:29:21;10.32;;;2.67;;
52948;SDS011;38812;50.942;3.644;2023-03-13T07:31:46;16.05;;;3.13;;
52948;SDS011;38812;50.942;3.644;2023-03-13T07:34:13;8.60;;;2.72;;
52948;SDS011;38812;50.942;3.644;2023-03-13T07:36:38;14.40;;;2.92;;
52948;SDS011;38812;50.942;3.644;2023-03-13T07:39:05;9.10;;;2.72;;
52948;SDS011;38812;50.942;3.644;2023-03-13T07:41:31;12.88;;;3.20;;
52948;SDS011;38812;50.942;3.644;2023-03-13T07:43:57;10.77;;;3.10;;
52948;SDS011;38812;50.942;3.644;2023-03-13T07:46:22;9.02;;;2.50;;
52948;SDS011;38812;50.942;3.644;2023-03-13T07:48:48;7.85;;;2.65;;
52948;SDS011;38812;50.942;3.644;2023-03-13T07:51:14;7.25;;;2.20;;
52948;SDS011;38812;50.942;3.644;2023-03-13T07:53:45;11.40;;;2.95;;
52948;SDS011;38812;50.942;3.644;2023-03-13T07:56:15;11.68;;;2.50;;
52948;SDS011;38812;50.942;3.644;2023-03-13T07:58:42;9.95;;;2.83;;
52948;SDS011;38812;50.942;3.644;2023-03-13T08:03:33;9.07;;;2.80;;
52948;SDS011;38812;50.942;3.644;2023-03-13T08:05:59;10.77;;;3.63;;
52948;SDS011;38812;50.942;3.644;2023-03-13T08:08:27;9.18;;;3.20;;
52948;SDS011;38812;50.942;3.644;2023-03-13T08:10:57;10.57;;;2.50;;
52948;SDS011;38812;50.942;3.644;2023-03-13T08:13:31;12.93;;;3.17;;
52948;SDS011;38812;50.942;3.644;2023-03-13T08:16:04;8.48;;;2.45;;
52948;SDS011;38812;50.942;3.644;2023-03-13T08:18:35;5.22;;;2.72;;
52948;SDS011;38812;50.942;3.644;2023-03-13T08:21:05;11.43;;;2.85;;
52948;SDS011;38812;50.942;3.644;2023-03-13T08:23:32;6.15;;;2.17;;
52948;SDS011;38812;50.942;3.644;2023-03-13T08:26:03;7.03;;;2.70;;
52948;SDS011;38812;50.942;3.644;2023-03-13T08:28:45;9.05;;;2.58;;
52948;SDS011;38812;50.942;3.644;2023-03-13T08:31:12;7.10;;;2.25;;
52948;SDS011;38812;50.942;3.644;2023-03-13T08:33:43;9.40;;;2.78;;
52948;SDS011;38812;50.942;3.644;2023-03-13T08:38:45;8.30;;;2.40;;
52948;SDS011;38812;50.942;3.644;2023-03-13T08:41:15;7.25;;;1.85;;
52948;SDS011;38812;50.942;3.644;2023-03-13T08:43:45;6.22;;;2.13;;
52948;SDS011;38812;50.942;3.644;2023-03-13T08:46:11;7.63;;;1.98;;
52948;SDS011;38812;50.942;3.644;2023-03-13T08:48:37;7.88;;;2.25;;
52948;SDS011;38812;50.942;3.644;2023-03-13T08:51:12;5.88;;;1.95;;
52948;SDS011;38812;50.942;3.644;2023-03-13T08:53:40;8.32;;;2.88;;
52948;SDS011;38812;50.942;3.644;2023-03-13T08:56:07;8.05;;;1.92;;
52948;SDS011;38812;50.942;3.644;2023-03-13T08:58:34;8.45;;;2.80;;
52948;SDS011;38812;50.942;3.644;2023-03-13T09:01:00;7.80;;;1.88;;
52948;SDS011;38812;50.942;3.644;2023-03-13T09:03:30;6.35;;;2.42;;
52948;SDS011;38812;50.942;3.644;2023-03-13T09:05:56;5.22;;;2.17;;
52948;SDS011;38812;50.942;3.644;2023-03-13T09:08:23;6.45;;;2.15;;
52948;SDS011;38812;50.942;3.644;2023-03-13T09:10:53;5.72;;;2.17;;
52948;SDS011;38812;50.942;3.644;2023-03-13T09:13:23;4.35;;;1.88;;
52948;SDS011;38812;50.942;3.644;2023-03-13T09:15:53;9.43;;;2.10;;
52948;SDS011;38812;50.942;3.644;2023-03-13T09:18:29;5.80;;;2.28;;
52948;SDS011;38812;50.942;3.644;2023-03-13T09:20:55;7.97;;;2.13;;
52948;SDS011;38812;50.942;3.644;2023-03-13T09:23:21;5.22;;;1.95;;
52948;SDS011;38812;50.942;3.644;2023-03-13T09:25:47;7.57;;;2.25;;
52948;SDS011;38812;50.942;3.644;2023-03-13T09:28:13;4.22;;;2.05;;
52948;SDS011;38812;50.942;3.644;2023-03-13T09:30:39;5.50;;;1.67;;
52948;SDS011;38812;50.942;3.644;2023-03-13T09:33:04;3.95;;;2.00;;
52948;SDS011;38812;50.942;3.644;2023-03-13T09:35:29;6.95;;;2.38;;
52948;SDS011;38812;50.942;3.644;2023-03-13T09:37:55;5.43;;;1.77;;
52948;SDS011;38812;50.942;3.644;2023-03-13T09:40:21;6.90;;;1.30;;
52948;SDS011;38812;50.942;3.644;2023-03-13T09:42:50;4.65;;;1.45;;
52948;SDS011;38812;50.942;3.644;2023-03-13T09:48:30;3.67;;;1.35;;
52948;SDS011;38812;50.942;3.644;2023-03-13T09:51:40;4.53;;;1.35;;
52948;SDS011;38812;50.942;3.644;2023-03-13T09:56:22;3.08;;;1.30;;
52948;SDS011;38812;50.942;3.644;2023-03-13T09:58:53;9.20;;;1.38;;
52948;SDS011;38812;50.942;3.644;2023-03-13T10:01:25;4.95;;;1.30;;
52948;SDS011;38812;50.942;3.644;2023-03-13T10:04:03;4.65;;;1.42;;
52948;SDS011;38812;50.942;3.644;2023-03-13T10:06:50;5.40;;;1.13;;
52948;SDS011;38812;50.942;3.644;2023-03-13T10:09:18;5.20;;;1.42;;
52948;SDS011;38812;50.942;3.644;2023-03-13T10:12:11;7.93;;;1.85;;
52948;SDS011;38812;50.942;3.644;2023-03-13T10:19:54;4.40;;;1.40;;
52948;SDS011;38812;50.942;3.644;2023-03-13T10:22:24;3.60;;;1.35;;
52948;SDS011;38812;50.942;3.644;2023-03-13T10:27:21;4.20;;;1.33;;
52948;SDS011;38812;50.942;3.644;2023-03-13T10:29:47;6.82;;;1.27;;
52948;SDS011;38812;50.942;3.644;2023-03-13T10:32:13;5.70;;;1.30;;
52948;SDS011;38812;50.942;3.644;2023-03-13T10:37:31;5.30;;;1.17;;
52948;SDS011;38812;50.942;3.644;2023-03-13T10:40:14;4.32;;;1.35;;
52948;SDS011;38812;50.942;3.644;2023-03-13T10:42:47;4.72;;;1.42;;
52948;SDS011;38812;50.942;3.644;2023-03-13T10:45:14;6.35;;;1.33;;
52948;SDS011;38812;50.942;3.644;2023-03-13T10:47:42;4.35;;;1.08;;
52948;SDS011;38812;50.942;3.644;2023-03-13T10:50:12;5.03;;;1.52;;
52948;SDS011;38812;50.942;3.644;2023-03-13T10:52:45;6.25;;;1.60;;
52948;SDS011;38812;50.942;3.644;2023-03-13T10:55:15;4.57;;;1.00;;
52948;SDS011;38812;50.942;3.644;2023-03-13T10:57:50;4.68;;;2.03;;
52948;SDS011;38812;50.942;3.644;2023-03-13T11:00:40;8.75;;;1.33;;
52948;SDS011;38812;50.942;3.644;2023-03-13T11:03:13;3.92;;;1.08;;
52948;SDS011;38812;50.942;3.644;2023-03-13T11:05:43;4.13;;;1.40;;
52948;SDS011;38812;50.942;3.644;2023-03-13T11:08:23;7.20;;;1.23;;
52948;SDS011;38812;50.942;3.644;2023-03-13T11:10:51;5.57;;;1.70;;
52948;SDS011;38812;50.942;3.644;2023-03-13T11:13:29;2.88;;;1.08;;
52948;SDS011;38812;50.942;3.644;2023-03-13T11:15:59;7.28;;;1.42;;
52948;SDS011;38812;50.942;3.644;2023-03-13T11:21:27;6.43;;;1.38;;
52948;SDS011;38812;50.942;3.644;2023-03-13T11:24:00;3.80;;;1.20;;
52948;SDS011;38812;50.942;3.644;2023-03-13T11:26:37;4.55;;;1.40;;
52948;SDS011;38812;50.942;3.644;2023-03-13T11:29:15;6.35;;;1.35;;
52948;SDS011;38812;50.942;3.644;2023-03-13T11:31:56;15.20;;;1.50;;
52948;SDS011;38812;50.942;3.644;2023-03-13T11:34:30;6.60;;;1.83;;
52948;SDS011;38812;50.942;3.644;2023-03-13T11:37:13;7.75;;;2.10;;
52948;SDS011;38812;50.942;3.644;2023-03-13T11:45:16;5.70;;;1.35;;
52948;SDS011;38812;50.942;3.644;2023-03-13T11:53:24;5.30;;;1.40;;
52948;SDS011;38812;50.942;3.644;2023-03-13T11:56:31;6.95;;;2.00;;
52948;SDS011;38812;50.942;3.644;2023-03-13T12:01:56;7.15;;;1.58;;
52948;SDS011;38812;50.942;3.644;2023-03-13T12:07:16;8.13;;;1.83;;
52948;SDS011;38812;50.942;3.644;2023-03-13T12:17:34;7.30;;;1.77;;
52948;SDS011;38812;50.942;3.644;2023-03-13T12:25:33;6.70;;;1.80;;
52948;SDS011;38812;50.942;3.644;2023-03-13T12:30:51;8.43;;;2.53;;
52948;SDS011;38812;50.942;3.644;2023-03-13T12:39:20;4.80;;;1.55;;
52948;SDS011;38812;50.942;3.644;2023-03-13T12:44:39;8.63;;;2.00;;
52948;SDS011;38812;50.942;3.644;2023-03-13T12:49:58;9.23;;;2.83;;
52948;SDS011;38812;50.942;3.644;2023-03-13T12:55:32;7.28;;;2.25;;
52948;SDS011;38812;50.942;3.644;2023-03-13T12:58:12;8.07;;;2.10;;
52948;SDS011;38812;50.942;3.644;2023-03-13T13:01:03;7.45;;;1.70;;
52948;SDS011;38812;50.942;3.644;2023-03-13T13:03:35;9.85;;;1.67;;
52948;SDS011;38812;50.942;3.644;2023-03-13T13:06:15;9.43;;;1.90;;
52948;SDS011;38812;50.942;3.644;2023-03-13T13:08:48;7.55;;;2.05;;
52948;SDS011;38812;50.942;3.644;2023-03-13T13:16:41;8.60;;;2.58;;
52948;SDS011;38812;50.942;3.644;2023-03-13T13:30:00;10.15;;;2.03;;
52948;SDS011;38812;50.942;3.644;2023-03-13T13:32:42;8.70;;;2.40;;
52948;SDS011;38812;50.942;3.644;2023-03-13T13:37:36;13.02;;;2.45;;
52948;SDS011;38812;50.942;3.644;2023-03-13T13:42:47;9.77;;;2.42;;
52948;SDS011;38812;50.942;3.644;2023-03-13T13:47:42;15.38;;;2.88;;
52948;SDS011;38812;50.942;3.644;2023-03-13T13:50:16;12.55;;;2.85;;
52948;SDS011;38812;50.942;3.644;2023-03-13T13:52:44;10.70;;;2.80;;
52948;SDS011;38812;50.942;3.644;2023-03-13T13:57:51;16.23;;;3.60;;
52948;SDS011;38812;50.942;3.644;2023-03-13T14:00:28;10.63;;;2.90;;
52948;SDS011;38812;50.942;3.644;2023-03-13T14:03:10;6.57;;;2.15;;
52948;SDS011;38812;50.942;3.644;2023-03-13T14:05:42;12.30;;;2.72;;
52948;SDS011;38812;50.942;3.644;2023-03-13T14:10:41;12.45;;;2.80;;
52948;SDS011;38812;50.942;3.644;2023-03-13T14:13:16;15.00;;;3.72;;
52948;SDS011;38812;50.942;3.644;2023-03-13T14:15:48;10.30;;;2.78;;
52948;SDS011;38812;50.942;3.644;2023-03-13T14:18:21;17.98;;;3.67;;
52948;SDS011;38812;50.942;3.644;2023-03-13T14:23:13;14.68;;;3.60;;
52948;SDS011;38812;50.942;3.644;2023-03-13T14:25:43;14.35;;;3.30;;
52948;SDS011;38812;50.942;3.644;2023-03-13T14:30:47;17.60;;;4.18;;
52948;SDS011;38812;50.942;3.644;2023-03-13T14:33:13;15.77;;;2.97;;
52948;SDS011;38812;50.942;3.644;2023-03-13T14:35:40;13.05;;;4.28;;
52948;SDS011;38812;50.942;3.644;2023-03-13T14:38:06;17.85;;;4.20;;
52948;SDS011;38812;50.942;3.644;2023-03-13T14:40:39;16.45;;;4.95;;
52948;SDS011;38812;50.942;3.644;2023-03-13T14:43:04;21.95;;;4.15;;
52948;SDS011;38812;50.942;3.644;2023-03-13T14:45:54;17.75;;;3.72;;
52948;SDS011;38812;50.942;3.644;2023-03-13T14:48:26;14.27;;;3.70;;
52948;SDS011;38812;50.942;3.644;2023-03-13T14:50:53;17.85;;;3.83;;
52948;SDS011;38812;50.942;3.644;2023-03-13T14:53:27;14.05;;;2.65;;
52948;SDS011;38812;50.942;3.644;2023-03-13T14:56:12;20.75;;;4.38;;
52948;SDS011;38812;50.942;3.644;2023-03-13T14:58:40;13.10;;;3.03;;
52948;SDS011;38812;50.942;3.644;2023-03-13T15:01:13;16.95;;;2.83;;
52948;SDS011;38812;50.942;3.644;2023-03-13T15:03:47;18.60;;;3.38;;
52948;SDS011;38812;50.942;3.644;2023-03-13T15:06:16;12.02;;;2.85;;
52948;SDS011;38812;50.942;3.644;2023-03-13T15:08:45;14.65;;;2.67;;
52948;SDS011;38812;50.942;3.644;2023-03-13T15:11:21;12.18;;;2.55;;
52948;SDS011;38812;50.942;3.644;2023-03-13T15:13:46;24.60;;;4.97;;
52948;SDS011;38812;50.942;3.644;2023-03-13T15:16:13;11.85;;;3.00;;
52948;SDS011;38812;50.942;3.644;2023-03-13T15:18:42;18.23;;;3.15;;
52948;SDS011;38812;50.942;3.644;2023-03-13T15:23:36;18.45;;;3.17;;
52948;SDS011;38812;50.942;3.644;2023-03-13T15:26:01;13.38;;;2.50;;
52948;SDS011;38812;50.942;3.644;2023-03-13T15:28:27;12.60;;;2.45;;
52948;SDS011;38812;50.942;3.644;2023-03-13T15:30:53;12.27;;;2.78;;
52948;SDS011;38812;50.942;3.644;2023-03-13T15:33:19;12.55;;;3.35;;
52948;SDS011;38812;50.942;3.644;2023-03-13T15:35:47;8.27;;;1.77;;
52948;SDS011;38812;50.942;3.644;2023-03-13T15:38:15;9.95;;;2.70;;
52948;SDS011;38812;50.942;3.644;2023-03-13T15:40:42;13.52;;;2.45;;
52948;SDS011;38812;50.942;3.644;2023-03-13T15:43:08;6.55;;;1.60;;
52948;SDS011;38812;50.942;3.644;2023-03-13T15:45:37;8.27;;;2.55;;
52948;SDS011;38812;50.942;3.644;2023-03-13T15:48:25;8.82;;;2.17;;
52948;SDS011;38812;50.942;3.644;2023-03-13T15:50:56;11.93;;;2.70;;
52948;SDS011;38812;50.942;3.644;2023-03-13T15:53:27;11.18;;;2.65;;
52948;SDS011;38812;50.942;3.644;2023-03-13T15:55:59;13.07;;;2.35;;
52948;SDS011;38812;50.942;3.644;2023-03-13T15:58:27;13.82;;;2.40;;
52948;SDS011;38812;50.942;3.644;2023-03-13T16:00:54;10.48;;;2.25;;
52948;SDS011;38812;50.942;3.644;2023-03-13T16:03:22;7.70;;;2.03;;
52948;SDS011;38812;50.942;3.644;2023-03-13T16:05:52;8.50;;;2.22;;
52948;SDS011;38812;50.942;3.644;2023-03-13T16:08:20;9.52;;;2.30;;
52948;SDS011;38812;50.942;3.644;2023-03-13T16:10:49;8.52;;;2.80;;
52948;SDS011;38812;50.942;3.644;2023-03-13T16:13:15;10.23;;;2.42;;
52948;SDS011;38812;50.942;3.644;2023-03-13T16:15:42;9.02;;;2.00;;
52948;SDS011;38812;50.942;3.644;2023-03-13T16:18:18;9.98;;;2.53;;
52948;SDS011;38812;50.942;3.644;2023-03-13T16:20:46;9.55;;;2.55;;
52948;SDS011;38812;50.942;3.644;2023-03-13T16:23:12;11.98;;;1.92;;
52948;SDS011;38812;50.942;3.644;2023-03-13T16:25:37;14.80;;;2.10;;
52948;SDS011;38812;50.942;3.644;2023-03-13T16:28:03;9.93;;;1.60;;
52948;SDS011;38812;50.942;3.644;2023-03-13T16:30:31;10.63;;;1.90;;
52948;SDS011;38812;50.942;3.644;2023-03-13T16:32:58;10.52;;;2.50;;
52948;SDS011;38812;50.942;3.644;2023-03-13T16:35:24;10.55;;;2.22;;
52948;SDS011;38812;50.942;3.644;2023-03-13T16:37:57;8.77;;;1.65;;
52948;SDS011;38812;50.942;3.644;2023-03-13T16:40:24;20.17;;;2.67;;
52948;SDS011;38812;50.942;3.644;2023-03-13T16:42:51;8.23;;;1.85;;
52948;SDS011;38812;50.942;3.644;2023-03-13T16:45:16;12.57;;;2.20;;
52948;SDS011;38812;50.942;3.644;2023-03-13T16:47:42;10.57;;;2.35;;
52948;SDS011;38812;50.942;3.644;2023-03-13T16:50:11;8.57;;;2.05;;
52948;SDS011;38812;50.942;3.644;2023-03-13T16:52:42;13.52;;;2.95;;
52948;SDS011;38812;50.942;3.644;2023-03-13T16:55:07;11.80;;;1.95;;
52948;SDS011;38812;50.942;3.644;2023-03-13T16:57:33;9.65;;;2.33;;